Las Vegas, Nevada
Traffic Map
Current Weather Conditions
Las Vegas, Nevada
Clear
Clear
58°
Feels Like: 58°
Wind Chill: 58° Ceiling: Unl
Heat Index: 58° Visibility: 10mi
Dew Point: 23° Wind: 13mph
Humidity: 26% Direction: 50° (NE)
Pressure: 29.77in Gusts: 0mph
Raw Report DataKLAS 270656Z 05011KT 10SM CLR 14/M05 A2977 RMK AO2 SLP068 T01441050
Traffic Incident Summary
Active as of:
Severity:
Category:
InformationThere was an issue retrieving the traffic information for this location. Please try a different location or try again shortly.
Advertisements
Track Severe Weather on mobile